This is the latest recevied weather packets stored in our database for station/object W0JRT-6. If no packets are shown the sender has not sent any weather packets the latest 10 day(s).
| Time | Temp. | Humidity | Pressure | Rain* | Wind** | Luminosity | Snow |
|---|---|---|---|---|---|---|---|
| 1778019006 | 12.78° C | 73% | 1008.3 hPa | 6.1 mm | - | - | - |
| 1778018404 | 12.78° C | 74% | 1008.4 hPa | 6.1 mm | - | - | - |
| 1778017808 | 12.78° C | 76% | 1008.6 hPa | 6.1 mm | - | - | - |
| 1778016660 | 12.78° C | 72% | 1008.6 hPa | 6.1 mm | - | - | - |
| 1778016602 | 12.78° C | 72% | 1008.6 hPa | 6.1 mm | - | - | - |
| 1778016014 | 12.22° C | 74% | 1008.8 hPa | 6.1 mm | - | - | - |
| 1778015403 | 12.22° C | 73% | 1008.7 hPa | 6.1 mm | - | - | - |
| 1778012404 | 11.67° C | 74% | 1009.3 hPa | 6.1 mm | - | - | - |
| 1778010608 | 11.67° C | 76% | 1009.2 hPa | 6.1 mm | - | - | - |
| 1778009405 | 11.67° C | 74% | 1009.3 hPa | 6.1 mm | - | - | - |
| 1778008810 | 11.67° C | 78% | 1009.4 hPa | 6.1 mm | - | - | - |
| 1778007604 | 11.67° C | 79% | 1009.4 hPa | 6.1 mm | - | - | - |
| 1778006401 | 11.11° C | 78% | 1009.5 hPa | 6.1 mm | - | - | - |
| 1778005198 | 11.11° C | 83% | 1009.7 hPa | 6.1 mm | - | - | - |
| 1778004600 | 11.11° C | 84% | 1009.8 hPa | 6.1 mm | - | - | - |
| 1778002202 | 10° C | 87% | 1010.8 hPa | 6.1 mm | - | - | - |
| 1778001598 | 10° C | 89% | 1010.7 hPa | 5.84 mm | - | - | - |
| 1778001002 | 10° C | 89% | 1010.6 hPa | 5.84 mm | - | - | - |
| 1778000407 | 10° C | 87% | 1010.6 hPa | 5.59 mm | - | - | - |
| 1777999205 | 10° C | 87% | 1010.7 hPa | 5.59 mm | - | - | - |
| 1777998600 | 10° C | 89% | 1010.7 hPa | 5.59 mm | - | - | - |
| 1777998003 | 10° C | 88% | 1010.9 hPa | 5.59 mm | - | - | - |
| 1777997409 | 9.44° C | 87% | 1010.7 hPa | 5.33 mm | - | - | - |
| 1777996804 | 10° C | 85% | 1010.9 hPa | 5.08 mm | - | - | - |
| 1777996197 | 10° C | 89% | 1010.7 hPa | 4.83 mm | - | - | - |
* Rain since midnight (hover to see other rain measurements)
** Current wind speed in m/s (hover to see current wind gust speed)